sensor_id;sensor_type;location;lat;lon;timestamp;pressure;altitude;pressure_sealevel;temperature;humidity
54994;BME280;40891;47.242;8.648;2024-03-02T00:00:07;95256.13;;;6.10;100.00
54994;BME280;40891;47.242;8.648;2024-03-02T00:02:42;95258.88;;;6.10;100.00
54994;BME280;40891;47.242;8.648;2024-03-02T00:05:08;95263.06;;;6.15;100.00
54994;BME280;40891;47.242;8.648;2024-03-02T00:07:36;95259.09;;;6.16;100.00
54994;BME280;40891;47.242;8.648;2024-03-02T00:10:08;95254.19;;;6.20;100.00
54994;BME280;40891;47.242;8.648;2024-03-02T00:12:35;95256.38;;;6.25;100.00
54994;BME280;40891;47.242;8.648;2024-03-02T00:15:01;95260.47;;;6.21;100.00
54994;BME280;40891;47.242;8.648;2024-03-02T00:17:28;95267.34;;;6.16;100.00
54994;BME280;40891;47.242;8.648;2024-03-02T00:19:54;95261.53;;;6.14;100.00
54994;BME280;40891;47.242;8.648;2024-03-02T00:22:19;95259.84;;;6.16;100.00
54994;BME280;40891;47.242;8.648;2024-03-02T00:24:45;95257.09;;;6.16;100.00
54994;BME280;40891;47.242;8.648;2024-03-02T00:27:12;95257.09;;;6.16;100.00
54994;BME280;40891;47.242;8.648;2024-03-02T00:29:40;95256.78;;;6.14;100.00
54994;BME280;40891;47.242;8.648;2024-03-02T00:32:13;95258.19;;;6.19;100.00
54994;BME280;40891;47.242;8.648;2024-03-02T00:34:39;95257.88;;;6.17;100.00
54994;BME280;40891;47.242;8.648;2024-03-02T00:37:05;95265.69;;;6.18;100.00
54994;BME280;40891;47.242;8.648;2024-03-02T00:39:30;95262.19;;;6.27;100.00
54994;BME280;40891;47.242;8.648;2024-03-02T00:41:56;95268.44;;;6.18;100.00
54994;BME280;40891;47.242;8.648;2024-03-02T00:44:25;95278.84;;;6.14;100.00
54994;BME280;40891;47.242;8.648;2024-03-02T00:46:51;95279.28;;;6.13;100.00
54994;BME280;40891;47.242;8.648;2024-03-02T00:49:18;95272.56;;;6.14;100.00
54994;BME280;40891;47.242;8.648;2024-03-02T00:51:46;95276.25;;;6.20;100.00
54994;BME280;40891;47.242;8.648;2024-03-02T00:54:14;95266.06;;;6.30;100.00
54994;BME280;40891;47.242;8.648;2024-03-02T00:56:41;95259.94;;;6.35;100.00
54994;BME280;40891;47.242;8.648;2024-03-02T00:59:06;95275.09;;;6.30;100.00
54994;BME280;40891;47.242;8.648;2024-03-02T01:01:33;95266.50;;;6.28;100.00
54994;BME280;40891;47.242;8.648;2024-03-02T01:03:59;95263.91;;;6.25;100.00
54994;BME280;40891;47.242;8.648;2024-03-02T01:06:24;95270.47;;;6.27;100.00
54994;BME280;40891;47.242;8.648;2024-03-02T01:08:50;95271.53;;;6.21;100.00
54994;BME280;40891;47.242;8.648;2024-03-02T01:11:16;95267.81;;;6.14;100.00
54994;BME280;40891;47.242;8.648;2024-03-02T01:13:42;95268.41;;;6.09;100.00
54994;BME280;40891;47.242;8.648;2024-03-02T01:16:07;95266.84;;;6.08;100.00
54994;BME280;40891;47.242;8.648;2024-03-02T01:18:32;95269.44;;;6.03;100.00
54994;BME280;40891;47.242;8.648;2024-03-02T01:20:58;95273.72;;;6.04;100.00
54994;BME280;40891;47.242;8.648;2024-03-02T01:23:23;95283.22;;;6.03;100.00
54994;BME280;40891;47.242;8.648;2024-03-02T01:25:50;95277.41;;;6.01;100.00
54994;BME280;40891;47.242;8.648;2024-03-02T01:28:15;95286.56;;;5.98;100.00
54994;BME280;40891;47.242;8.648;2024-03-02T01:30:41;95282.72;;;5.95;100.00
54994;BME280;40891;47.242;8.648;2024-03-02T01:33:06;95277.97;;;5.96;100.00
54994;BME280;40891;47.242;8.648;2024-03-02T01:35:32;95287.16;;;5.93;100.00
54994;BME280;40891;47.242;8.648;2024-03-02T01:37:58;95280.28;;;5.97;100.00
54994;BME280;40891;47.242;8.648;2024-03-02T01:40:24;95288.22;;;5.95;100.00
54994;BME280;40891;47.242;8.648;2024-03-02T01:42:53;95281.94;;;5.95;100.00
54994;BME280;40891;47.242;8.648;2024-03-02T01:45:19;95285.78;;;5.97;100.00
54994;BME280;40891;47.242;8.648;2024-03-02T01:47:45;95288.09;;;5.99;100.00
54994;BME280;40891;47.242;8.648;2024-03-02T01:50:13;95288.09;;;5.99;100.00
54994;BME280;40891;47.242;8.648;2024-03-02T01:52:39;95287.19;;;6.02;100.00
54994;BME280;40891;47.242;8.648;2024-03-02T01:55:05;95296.09;;;6.06;100.00
54994;BME280;40891;47.242;8.648;2024-03-02T01:57:31;95292.47;;;6.09;100.00
54994;BME280;40891;47.242;8.648;2024-03-02T01:59:57;95286.47;;;6.10;100.00
54994;BME280;40891;47.242;8.648;2024-03-02T02:02:22;95290.00;;;6.11;100.00
54994;BME280;40891;47.242;8.648;2024-03-02T02:04:47;95293.09;;;6.13;100.00
54994;BME280;40891;47.242;8.648;2024-03-02T02:07:13;95286.81;;;6.12;100.00
54994;BME280;40891;47.242;8.648;2024-03-02T02:09:41;95290.66;;;6.15;100.00
54994;BME280;40891;47.242;8.648;2024-03-02T02:12:06;95282.06;;;6.13;100.00
54994;BME280;40891;47.242;8.648;2024-03-02T02:14:33;95281.31;;;6.12;100.00
54994;BME280;40891;47.242;8.648;2024-03-02T02:16:58;95282.66;;;6.08;100.00
54994;BME280;40891;47.242;8.648;2024-03-02T02:19:24;95283.97;;;6.03;100.00
54994;BME280;40891;47.242;8.648;2024-03-02T02:21:49;95288.88;;;5.99;100.00
54994;BME280;40891;47.242;8.648;2024-03-02T02:24:14;95285.69;;;6.01;100.00
54994;BME280;40891;47.242;8.648;2024-03-02T02:26:40;95292.09;;;5.98;100.00
54994;BME280;40891;47.242;8.648;2024-03-02T02:29:05;95278.72;;;5.96;100.00
54994;BME280;40891;47.242;8.648;2024-03-02T02:31:40;95289.75;;;5.96;100.00
54994;BME280;40891;47.242;8.648;2024-03-02T02:34:06;95280.59;;;5.99;100.00
54994;BME280;40891;47.242;8.648;2024-03-02T02:36:32;95276.78;;;6.06;100.00
54994;BME280;40891;47.242;8.648;2024-03-02T02:39:02;95275.69;;;6.03;100.00
54994;BME280;40891;47.242;8.648;2024-03-02T02:41:32;95268.03;;;5.98;100.00
54994;BME280;40891;47.242;8.648;2024-03-02T02:43:57;95273.66;;;5.95;100.00
54994;BME280;40891;47.242;8.648;2024-03-02T02:46:22;95274.91;;;5.94;100.00
54994;BME280;40891;47.242;8.648;2024-03-02T02:48:47;95270.13;;;5.94;100.00
54994;BME280;40891;47.242;8.648;2024-03-02T02:51:13;95265.84;;;5.93;100.00
54994;BME280;40891;47.242;8.648;2024-03-02T02:53:38;95264.31;;;5.92;100.00
54994;BME280;40891;47.242;8.648;2024-03-02T02:56:06;95267.84;;;5.93;100.00
54994;BME280;40891;47.242;8.648;2024-03-02T02:58:31;95259.69;;;5.89;100.00
54994;BME280;40891;47.242;8.648;2024-03-02T03:00:57;95257.44;;;5.97;100.00
54994;BME280;40891;47.242;8.648;2024-03-02T03:03:22;95260.50;;;5.99;100.00
54994;BME280;40891;47.242;8.648;2024-03-02T03:05:48;95255.91;;;5.96;100.00
54994;BME280;40891;47.242;8.648;2024-03-02T03:08:13;95252.50;;;5.92;100.00
54994;BME280;40891;47.242;8.648;2024-03-02T03:10:39;95248.22;;;5.91;100.00
54994;BME280;40891;47.242;8.648;2024-03-02T03:13:05;95244.38;;;5.88;100.00
54994;BME280;40891;47.242;8.648;2024-03-02T03:15:34;95246.03;;;5.86;100.00
54994;BME280;40891;47.242;8.648;2024-03-02T03:17:59;95248.13;;;5.82;100.00
54994;BME280;40891;47.242;8.648;2024-03-02T03:20:25;95249.88;;;5.88;100.00
54994;BME280;40891;47.242;8.648;2024-03-02T03:22:50;95248.38;;;5.96;100.00
54994;BME280;40891;47.242;8.648;2024-03-02T03:25:15;95247.81;;;6.01;100.00
54994;BME280;40891;47.242;8.648;2024-03-02T03:27:40;95249.31;;;5.93;100.00
54994;BME280;40891;47.242;8.648;2024-03-02T03:30:07;95253.41;;;5.89;100.00
54994;BME280;40891;47.242;8.648;2024-03-02T03:32:32;95245.13;;;5.89;100.00
54994;BME280;40891;47.242;8.648;2024-03-02T03:34:57;95251.88;;;5.88;100.00
54994;BME280;40891;47.242;8.648;2024-03-02T03:37:23;95248.53;;;5.93;100.00
54994;BME280;40891;47.242;8.648;2024-03-02T03:39:49;95245.13;;;5.89;100.00
54994;BME280;40891;47.242;8.648;2024-03-02T03:42:14;95247.91;;;5.89;100.00
54994;BME280;40891;47.242;8.648;2024-03-02T03:44:39;95245.13;;;5.89;100.00
54994;BME280;40891;47.242;8.648;2024-03-02T03:47:06;95252.84;;;5.94;100.00
54994;BME280;40891;47.242;8.648;2024-03-02T03:49:32;95242.81;;;5.87;100.00
54994;BME280;40891;47.242;8.648;2024-03-02T03:51:57;95249.66;;;5.83;100.00
54994;BME280;40891;47.242;8.648;2024-03-02T03:54:22;95244.91;;;5.83;100.00
54994;BME280;40891;47.242;8.648;2024-03-02T03:56:48;95249.66;;;5.83;100.00
54994;BME280;40891;47.242;8.648;2024-03-02T03:59:13;95248.25;;;5.78;100.00
54994;BME280;40891;47.242;8.648;2024-03-02T04:01:38;95248.69;;;5.77;100.00
54994;BME280;40891;47.242;8.648;2024-03-02T04:04:03;95243.63;;;5.75;100.00
54994;BME280;40891;47.242;8.648;2024-03-02T04:06:29;95236.91;;;5.76;100.00
54994;BME280;40891;47.242;8.648;2024-03-02T04:08:54;95235.16;;;5.70;100.00
54994;BME280;40891;47.242;8.648;2024-03-02T04:11:20;95234.97;;;5.64;100.00
54994;BME280;40891;47.242;8.648;2024-03-02T04:13:45;95239.97;;;5.57;100.00
54994;BME280;40891;47.242;8.648;2024-03-02T04:16:10;95244.94;;;5.49;100.00
54994;BME280;40891;47.242;8.648;2024-03-02T04:18:36;95242.78;;;5.44;100.00
54994;BME280;40891;47.242;8.648;2024-03-02T04:21:01;95241.88;;;5.47;100.00
54994;BME280;40891;47.242;8.648;2024-03-02T04:23:27;95242.78;;;5.44;100.00
54994;BME280;40891;47.242;8.648;2024-03-02T04:25:52;95241.25;;;5.43;100.00
54994;BME280;40891;47.242;8.648;2024-03-02T04:28:18;95248.09;;;5.38;100.00
54994;BME280;40891;47.242;8.648;2024-03-02T04:30:43;95242.25;;;5.36;100.00
54994;BME280;40891;47.242;8.648;2024-03-02T04:33:08;95245.59;;;5.31;100.00
54994;BME280;40891;47.242;8.648;2024-03-02T04:35:38;95246.16;;;5.26;100.00
54994;BME280;40891;47.242;8.648;2024-03-02T04:38:03;95250.28;;;5.43;100.00
54994;BME280;40891;47.242;8.648;2024-03-02T04:40:29;95248.47;;;5.49;100.00
54994;BME280;40891;47.242;8.648;2024-03-02T04:42:54;95241.50;;;5.58;100.00
54994;BME280;40891;47.242;8.648;2024-03-02T04:45:19;95250.03;;;5.50;100.00
54994;BME280;40891;47.242;8.648;2024-03-02T04:47:45;95244.78;;;5.43;100.00
54994;BME280;40891;47.242;8.648;2024-03-02T04:50:10;95240.22;;;5.49;100.00
54994;BME280;40891;47.242;8.648;2024-03-02T04:52:36;95246.63;;;5.46;100.00
54994;BME280;40891;47.242;8.648;2024-03-02T04:55:02;95249.63;;;5.39;100.00
54994;BME280;40891;47.242;8.648;2024-03-02T04:57:45;95252.78;;;5.50;100.00
54994;BME280;40891;47.242;8.648;2024-03-02T05:00:12;95259.31;;;5.44;100.00
54994;BME280;40891;47.242;8.648;2024-03-02T05:02:37;95259.31;;;5.44;100.00
54994;BME280;40891;47.242;8.648;2024-03-02T05:05:03;95260.53;;;5.43;100.00
54994;BME280;40891;47.242;8.648;2024-03-02T05:07:28;95259.91;;;5.39;100.00
54994;BME280;40891;47.242;8.648;2024-03-02T05:09:54;95264.31;;;5.36;100.00
54994;BME280;40891;47.242;8.648;2024-03-02T05:12:19;95261.22;;;5.34;100.00
54994;BME280;40891;47.242;8.648;2024-03-02T05:15:03;95265.34;;;5.30;100.00
54994;BME280;40891;47.242;8.648;2024-03-02T05:17:29;95264.34;;;5.24;100.00
54994;BME280;40891;47.242;8.648;2024-03-02T05:19:54;95263.69;;;5.20;100.00
54994;BME280;40891;47.242;8.648;2024-03-02T05:22:19;95268.88;;;5.18;100.00
54994;BME280;40891;47.242;8.648;2024-03-02T05:24:44;95265.91;;;5.12;100.00
54994;BME280;40891;47.242;8.648;2024-03-02T05:27:10;95262.72;;;5.14;100.00
54994;BME280;40891;47.242;8.648;2024-03-02T05:29:35;95268.22;;;5.14;100.00
54994;BME280;40891;47.242;8.648;2024-03-02T05:32:01;95270.53;;;5.15;100.00
54994;BME280;40891;47.242;8.648;2024-03-02T05:34:26;95269.63;;;5.18;100.00
54994;BME280;40891;47.242;8.648;2024-03-02T05:36:51;95271.81;;;5.23;100.00
54994;BME280;40891;47.242;8.648;2024-03-02T05:39:17;95274.72;;;5.20;100.00
54994;BME280;40891;47.242;8.648;2024-03-02T05:41:42;95275.50;;;5.20;100.00
54994;BME280;40891;47.242;8.648;2024-03-02T05:44:07;95271.09;;;5.23;100.00
54994;BME280;40891;47.242;8.648;2024-03-02T05:46:33;95274.59;;;5.23;100.00
54994;BME280;40891;47.242;8.648;2024-03-02T05:48:59;95274.16;;;5.25;100.00
54994;BME280;40891;47.242;8.648;2024-03-02T05:51:24;95271.81;;;5.23;100.00
54994;BME280;40891;47.242;8.648;2024-03-02T05:53:50;95265.34;;;5.30;100.00
54994;BME280;40891;47.242;8.648;2024-03-02T05:56:15;95274.66;;;5.32;100.00
54994;BME280;40891;47.242;8.648;2024-03-02T05:58:41;95273.59;;;5.30;100.00
54994;BME280;40891;47.242;8.648;2024-03-02T06:01:25;95273.91;;;5.32;100.00
54994;BME280;40891;47.242;8.648;2024-03-02T06:03:55;95270.06;;;5.29;100.00
54994;BME280;40891;47.242;8.648;2024-03-02T06:06:20;95277.78;;;5.34;100.00
54994;BME280;40891;47.242;8.648;2024-03-02T06:08:46;95273.91;;;5.32;100.00
54994;BME280;40891;47.242;8.648;2024-03-02T06:11:11;95284.16;;;5.31;100.00
54994;BME280;40891;47.242;8.648;2024-03-02T06:13:36;95275.44;;;5.33;100.00
54994;BME280;40891;47.242;8.648;2024-03-02T06:16:02;95270.25;;;5.35;100.00
54994;BME280;40891;47.242;8.648;2024-03-02T06:18:27;95269.81;;;5.36;100.00
54994;BME280;40891;47.242;8.648;2024-03-02T06:20:53;95265.34;;;5.51;100.00
54994;BME280;40891;47.242;8.648;2024-03-02T06:23:18;95271.56;;;5.43;100.00
54994;BME280;40891;47.242;8.648;2024-03-02T06:25:43;95277.63;;;5.38;100.00
54994;BME280;40891;47.242;8.648;2024-03-02T06:28:09;95275.44;;;5.33;100.00
54994;BME280;40891;47.242;8.648;2024-03-02T06:30:34;95278.66;;;5.31;100.00
54994;BME280;40891;47.242;8.648;2024-03-02T06:33:00;95287.81;;;5.28;100.00
54994;BME280;40891;47.242;8.648;2024-03-02T06:35:25;95279.53;;;5.28;100.00
54994;BME280;40891;47.242;8.648;2024-03-02T06:37:50;95281.97;;;5.26;100.00
54994;BME280;40891;47.242;8.648;2024-03-02T06:40:16;95286.84;;;5.22;100.00
54994;BME280;40891;47.242;8.648;2024-03-02T06:42:41;95287.16;;;5.24;100.00
54994;BME280;40891;47.242;8.648;2024-03-02T06:45:06;95290.22;;;5.26;100.00
54994;BME280;40891;47.242;8.648;2024-03-02T06:47:32;95295.19;;;5.31;100.00
54994;BME280;40891;47.242;8.648;2024-03-02T06:49:57;95286.34;;;5.36;100.00
54994;BME280;40891;47.242;8.648;2024-03-02T06:52:24;95280.03;;;5.48;100.00
54994;BME280;40891;47.242;8.648;2024-03-02T06:54:49;95287.50;;;5.61;100.00
54994;BME280;40891;47.242;8.648;2024-03-02T06:57:14;95273.78;;;5.70;100.00
54994;BME280;40891;47.242;8.648;2024-03-02T06:59:41;95276.69;;;5.88;100.00
54994;BME280;40891;47.242;8.648;2024-03-02T07:02:06;95274.75;;;5.97;100.00
54994;BME280;40891;47.242;8.648;2024-03-02T07:04:33;95275.44;;;6.10;100.00
54994;BME280;40891;47.242;8.648;2024-03-02T07:06:58;95271.91;;;6.32;100.00
54994;BME280;40891;47.242;8.648;2024-03-02T07:09:23;95267.06;;;6.45;100.00
54994;BME280;40891;47.242;8.648;2024-03-02T07:11:49;95272.66;;;6.63;100.00
54994;BME280;40891;47.242;8.648;2024-03-02T07:14:14;95272.59;;;6.94;100.00
54994;BME280;40891;47.242;8.648;2024-03-02T07:16:40;95269.31;;;7.17;100.00
54994;BME280;40891;47.242;8.648;2024-03-02T07:19:05;95269.03;;;7.42;100.00
54994;BME280;40891;47.242;8.648;2024-03-02T07:21:31;95272.41;;;7.55;100.00
54994;BME280;40891;47.242;8.648;2024-03-02T07:23:58;95263.34;;;7.64;100.00
54994;BME280;40891;47.242;8.648;2024-03-02T07:26:24;95263.34;;;7.64;100.00
54994;BME280;40891;47.242;8.648;2024-03-02T07:28:50;95263.50;;;7.60;100.00
54994;BME280;40891;47.242;8.648;2024-03-02T07:31:16;95257.97;;;7.51;100.00
54994;BME280;40891;47.242;8.648;2024-03-02T07:33:44;95258.28;;;7.71;100.00
54994;BME280;40891;47.242;8.648;2024-03-02T07:36:09;95250.38;;;8.15;100.00
54994;BME280;40891;47.242;8.648;2024-03-02T07:38:34;95236.31;;;8.87;100.00
54994;BME280;40891;47.242;8.648;2024-03-02T07:41:00;95239.69;;;9.63;100.00
54994;BME280;40891;47.242;8.648;2024-03-02T07:43:26;95229.94;;;10.35;100.00
54994;BME280;40891;47.242;8.648;2024-03-02T07:45:51;95229.81;;;10.58;100.00
54994;BME280;40891;47.242;8.648;2024-03-02T07:48:17;95233.09;;;10.71;96.85
54994;BME280;40891;47.242;8.648;2024-03-02T07:50:43;95216.97;;;10.75;95.56
54994;BME280;40891;47.242;8.648;2024-03-02T07:53:08;95220.25;;;10.59;95.50
54994;BME280;40891;47.242;8.648;2024-03-02T07:55:34;95218.56;;;10.82;94.83
54994;BME280;40891;47.242;8.648;2024-03-02T07:58:03;95216.28;;;10.80;96.98
54994;BME280;40891;47.242;8.648;2024-03-02T08:00:28;95223.31;;;10.47;96.51
54994;BME280;40891;47.242;8.648;2024-03-02T08:02:55;95221.66;;;10.11;98.31
54994;BME280;40891;47.242;8.648;2024-03-02T08:05:20;95221.81;;;9.78;98.94
54994;BME280;40891;47.242;8.648;2024-03-02T08:07:46;95228.69;;;9.68;99.91
54994;BME280;40891;47.242;8.648;2024-03-02T08:10:12;95221.13;;;9.69;100.00
54994;BME280;40891;47.242;8.648;2024-03-02T08:12:38;95223.97;;;9.59;100.00
54994;BME280;40891;47.242;8.648;2024-03-02T08:15:03;95221.81;;;9.78;100.00
54994;BME280;40891;47.242;8.648;2024-03-02T08:17:29;95227.75;;;9.71;100.00
54994;BME280;40891;47.242;8.648;2024-03-02T08:19:54;95224.19;;;9.71;99.93
54994;BME280;40891;47.242;8.648;2024-03-02T08:22:20;95219.97;;;9.61;97.83
54994;BME280;40891;47.242;8.648;2024-03-02T08:24:45;95220.50;;;9.50;99.26
54994;BME280;40891;47.242;8.648;2024-03-02T08:27:11;95218.22;;;9.48;100.00
54994;BME280;40891;47.242;8.648;2024-03-02T08:29:37;95210.47;;;9.52;97.91
54994;BME280;40891;47.242;8.648;2024-03-02T08:32:02;95213.97;;;9.77;97.17
54994;BME280;40891;47.242;8.648;2024-03-02T08:34:28;95201.66;;;10.07;97.28
54994;BME280;40891;47.242;8.648;2024-03-02T08:36:53;95193.38;;;10.36;93.10
54994;BME280;40891;47.242;8.648;2024-03-02T08:39:19;95186.84;;;11.29;86.47
54994;BME280;40891;47.242;8.648;2024-03-02T08:41:45;95175.84;;;12.94;78.32
54994;BME280;40891;47.242;8.648;2024-03-02T08:44:11;95168.28;;;14.73;67.45
54994;BME280;40891;47.242;8.648;2024-03-02T08:46:36;95166.59;;;16.07;61.22
54994;BME280;40891;47.242;8.648;2024-03-02T08:49:02;95155.97;;;17.25;56.51
54994;BME280;40891;47.242;8.648;2024-03-02T08:51:28;95141.38;;;18.12;51.55
54994;BME280;40891;47.242;8.648;2024-03-02T08:53:53;95130.69;;;19.06;49.90
54994;BME280;40891;47.242;8.648;2024-03-02T08:56:18;95118.78;;;19.91;48.00
54994;BME280;40891;47.242;8.648;2024-03-02T08:58:45;95120.41;;;19.87;47.32
54994;BME280;40891;47.242;8.648;2024-03-02T09:01:11;95112.03;;;20.62;44.73
54994;BME280;40891;47.242;8.648;2024-03-02T09:03:36;95114.88;;;21.24;43.48
54994;BME280;40891;47.242;8.648;2024-03-02T09:06:02;95101.59;;;22.11;41.14
54994;BME280;40891;47.242;8.648;2024-03-02T09:08:28;95101.53;;;22.54;39.97
54994;BME280;40891;47.242;8.648;2024-03-02T09:10:54;95099.25;;;22.60;39.34
54994;BME280;40891;47.242;8.648;2024-03-02T09:13:19;95090.09;;;22.97;39.64
54994;BME280;40891;47.242;8.648;2024-03-02T09:15:45;95085.75;;;23.04;40.22
54994;BME280;40891;47.242;8.648;2024-03-02T09:18:10;95085.94;;;23.14;39.86
54994;BME280;40891;47.242;8.648;2024-03-02T09:20:36;95093.84;;;23.00;39.97
54994;BME280;40891;47.242;8.648;2024-03-02T09:23:01;95084.97;;;22.96;39.61
54994;BME280;40891;47.242;8.648;2024-03-02T09:25:26;95095.00;;;21.44;42.78
54994;BME280;40891;47.242;8.648;2024-03-02T09:27:52;95096.88;;;21.14;43.33
54994;BME280;40891;47.242;8.648;2024-03-02T09:30:17;95095.53;;;21.35;43.23
54994;BME280;40891;47.242;8.648;2024-03-02T09:32:42;95090.63;;;20.46;45.20
54994;BME280;40891;47.242;8.648;2024-03-02T09:35:08;95090.97;;;20.63;44.18
54994;BME280;40891;47.242;8.648;2024-03-02T09:37:34;95079.38;;;21.79;41.86
54994;BME280;40891;47.242;8.648;2024-03-02T09:40:00;95082.97;;;20.54;44.36
54994;BME280;40891;47.242;8.648;2024-03-02T09:42:25;95087.31;;;19.87;44.85
54994;BME280;40891;47.242;8.648;2024-03-02T09:44:51;95076.69;;;19.80;46.17
54994;BME280;40891;47.242;8.648;2024-03-02T09:47:17;95084.84;;;20.17;44.36
54994;BME280;40891;47.242;8.648;2024-03-02T09:49:42;95080.72;;;19.06;47.13
54994;BME280;40891;47.242;8.648;2024-03-02T09:52:10;95075.94;;;19.80;46.79
54994;BME280;40891;47.242;8.648;2024-03-02T09:54:35;95074.03;;;19.95;46.77
54994;BME280;40891;47.242;8.648;2024-03-02T09:57:02;95074.88;;;19.69;46.72
54994;BME280;40891;47.242;8.648;2024-03-02T09:59:27;95079.53;;;19.80;46.72
54994;BME280;40891;47.242;8.648;2024-03-02T10:02:02;95081.84;;;19.42;47.50
54994;BME280;40891;47.242;8.648;2024-03-02T10:04:29;95080.66;;;19.38;47.77
54994;BME280;40891;47.242;8.648;2024-03-02T10:09:37;95062.59;;;20.96;44.36
54994;BME280;40891;47.242;8.648;2024-03-02T10:12:06;95056.66;;;20.38;44.61
54994;BME280;40891;47.242;8.648;2024-03-02T10:14:32;95065.19;;;18.73;48.04
54994;BME280;40891;47.242;8.648;2024-03-02T10:17:04;95066.63;;;18.93;47.80
54994;BME280;40891;47.242;8.648;2024-03-02T10:19:30;95063.59;;;19.30;47.16
54994;BME280;40891;47.242;8.648;2024-03-02T10:22:01;95050.75;;;20.15;45.67
54994;BME280;40891;47.242;8.648;2024-03-02T10:24:28;95049.22;;;20.97;43.06
54994;BME280;40891;47.242;8.648;2024-03-02T10:26:59;95051.53;;;20.78;43.20
54994;BME280;40891;47.242;8.648;2024-03-02T10:29:24;95065.63;;;19.82;44.62
54994;BME280;40891;47.242;8.648;2024-03-02T10:31:53;95049.88;;;19.87;45.23
54994;BME280;40891;47.242;8.648;2024-03-02T10:34:19;95053.13;;;20.45;43.48
54994;BME280;40891;47.242;8.648;2024-03-02T10:36:47;95044.56;;;21.28;43.02
54994;BME280;40891;47.242;8.648;2024-03-02T10:39:13;95050.31;;;20.66;44.01
54994;BME280;40891;47.242;8.648;2024-03-02T10:41:39;95038.66;;;21.18;43.18
54994;BME280;40891;47.242;8.648;2024-03-02T10:44:07;95054.44;;;20.85;42.01
54994;BME280;40891;47.242;8.648;2024-03-02T10:46:34;95027.84;;;21.37;40.56
54994;BME280;40891;47.242;8.648;2024-03-02T10:49:01;95036.34;;;21.09;41.59
54994;BME280;40891;47.242;8.648;2024-03-02T10:51:28;95031.22;;;20.59;43.80
54994;BME280;40891;47.242;8.648;2024-03-02T10:54:00;95020.88;;;21.38;42.74
54994;BME280;40891;47.242;8.648;2024-03-02T10:56:31;95011.97;;;22.44;40.15
54994;BME280;40891;47.242;8.648;2024-03-02T10:59:03;95014.44;;;22.47;39.55
54994;BME280;40891;47.242;8.648;2024-03-02T11:01:32;95017.97;;;21.23;42.26
54994;BME280;40891;47.242;8.648;2024-03-02T11:03:59;95015.59;;;21.78;40.08
54994;BME280;40891;47.242;8.648;2024-03-02T11:06:27;95007.91;;;21.43;41.27
54994;BME280;40891;47.242;8.648;2024-03-02T11:08:55;95003.53;;;21.06;41.22
54994;BME280;40891;47.242;8.648;2024-03-02T11:11:29;94997.72;;;21.47;40.61
54994;BME280;40891;47.242;8.648;2024-03-02T11:13:57;94997.00;;;21.54;40.85
54994;BME280;40891;47.242;8.648;2024-03-02T11:16:35;94994.31;;;21.06;41.73
54994;BME280;40891;47.242;8.648;2024-03-02T11:19:05;94990.38;;;21.95;39.82
54994;BME280;40891;47.242;8.648;2024-03-02T11:21:35;94987.84;;;22.73;38.22
54994;BME280;40891;47.242;8.648;2024-03-02T11:26:46;94994.63;;;22.62;37.71
54994;BME280;40891;47.242;8.648;2024-03-02T11:32:00;94993.09;;;21.73;39.12
54994;BME280;40891;47.242;8.648;2024-03-02T11:34:34;94984.78;;;21.59;39.44
54994;BME280;40891;47.242;8.648;2024-03-02T11:37:03;94962.34;;;22.73;38.17
54994;BME280;40891;47.242;8.648;2024-03-02T11:39:30;94963.97;;;22.08;40.21
54994;BME280;40891;47.242;8.648;2024-03-02T11:41:56;94954.78;;;23.53;37.08
54994;BME280;40891;47.242;8.648;2024-03-02T11:44:22;94955.56;;;23.31;36.31
54994;BME280;40891;47.242;8.648;2024-03-02T11:47:01;94951.88;;;22.98;37.40
54994;BME280;40891;47.242;8.648;2024-03-02T11:49:44;94959.75;;;21.79;39.82
54994;BME280;40891;47.242;8.648;2024-03-02T11:52:13;94959.66;;;22.07;40.24
54994;BME280;40891;47.242;8.648;2024-03-02T11:54:41;94950.94;;;22.12;39.63
54994;BME280;40891;47.242;8.648;2024-03-02T11:57:12;94945.69;;;22.16;39.38
54994;BME280;40891;47.242;8.648;2024-03-02T11:59:38;94933.78;;;23.56;37.60
54994;BME280;40891;47.242;8.648;2024-03-02T12:02:03;94932.13;;;24.17;36.13
54994;BME280;40891;47.242;8.648;2024-03-02T12:04:29;94928.41;;;25.16;34.01
54994;BME280;40891;47.242;8.648;2024-03-02T12:06:55;94934.22;;;24.42;35.30
54994;BME280;40891;47.242;8.648;2024-03-02T12:09:22;94919.88;;;24.98;34.52
54994;BME280;40891;47.242;8.648;2024-03-02T12:11:47;94910.25;;;26.16;32.88
54994;BME280;40891;47.242;8.648;2024-03-02T12:14:13;94930.50;;;23.67;35.72
54994;BME280;40891;47.242;8.648;2024-03-02T12:16:38;94928.06;;;23.63;35.81
54994;BME280;40891;47.242;8.648;2024-03-02T12:19:05;94926.44;;;24.17;35.32
54994;BME280;40891;47.242;8.648;2024-03-02T12:21:31;94915.19;;;24.27;35.18
54994;BME280;40891;47.242;8.648;2024-03-02T12:23:56;94904.78;;;25.40;33.12
54994;BME280;40891;47.242;8.648;2024-03-02T12:26:22;94900.56;;;25.75;32.73
54994;BME280;40891;47.242;8.648;2024-03-02T12:28:47;94901.28;;;24.97;33.24
54994;BME280;40891;47.242;8.648;2024-03-02T12:31:13;94891.84;;;25.29;33.77
54994;BME280;40891;47.242;8.648;2024-03-02T12:33:40;94891.97;;;24.38;34.63
54994;BME280;40891;47.242;8.648;2024-03-02T12:36:09;94887.16;;;25.24;33.96
54994;BME280;40891;47.242;8.648;2024-03-02T12:38:34;94885.84;;;23.67;35.35
54994;BME280;40891;47.242;8.648;2024-03-02T12:41:00;94881.44;;;24.06;35.63
54994;BME280;40891;47.242;8.648;2024-03-02T12:43:30;94887.19;;;23.91;36.09
54994;BME280;40891;47.242;8.648;2024-03-02T12:45:55;94884.63;;;23.78;36.35
54994;BME280;40891;47.242;8.648;2024-03-02T12:48:21;94879.81;;;24.20;35.38
54994;BME280;40891;47.242;8.648;2024-03-02T12:50:47;94862.69;;;25.38;33.15
54994;BME280;40891;47.242;8.648;2024-03-02T12:53:16;94861.00;;;26.06;32.09
54994;BME280;40891;47.242;8.648;2024-03-02T12:55:42;94858.56;;;26.84;29.92
54994;BME280;40891;47.242;8.648;2024-03-02T12:58:08;94854.09;;;24.94;33.04
54994;BME280;40891;47.242;8.648;2024-03-02T13:00:33;94851.44;;;25.84;33.29
54994;BME280;40891;47.242;8.648;2024-03-02T13:03:00;94848.28;;;26.62;31.16